Time;durP1;ratioP1;P1;durP2;ratioP2;P2;SDS_P1;SDS_P2;PMS_P1;PMS_P2;Temp;Humidity;BMP_temperature;BMP_pressure;BME280_temperature;BME280_humidity;BME280_pressure;Samples;Min_cycle;Max_cycle;Signal;HPM_P1;HPM_P2
2023/10/15 00:00:34;;;;;;;10.90;5.20;;;;;;;14.10;77.01;99734.68;104254;1257;63792;-69
2023/10/15 00:03:03;;;;;;;11.30;4.60;;;;;;;14.09;77.06;99733.96;104152;1260;59757;-70
2023/10/15 00:13:07;;;;;;;7.40;4.50;;;;;;;14.05;77.48;99725.32;101840;1289;600713;-70
2023/10/15 00:15:35;;;;;;;8.30;5.00;;;;;;;14.03;77.53;99725.68;103348;1267;59370;-70
2023/10/15 00:18:07;;;;;;;7.80;4.70;;;;;;;14.03;77.65;99725.11;103644;1267;58902;-69
2023/10/15 00:20:35;;;;;;;9.10;4.60;;;;;;;14.04;77.76;99726.15;103751;1270;63698;-69
2023/10/15 00:23:06;;;;;;;9.80;4.60;;;;;;;14.04;77.69;99727.75;103540;1266;58952;-70
2023/10/15 00:33:30;;;;;;;7.10;4.40;;;;;;;14.02;77.74;99721.44;101821;1290;600705;-70
2023/10/15 00:35:59;;;;;;;8.20;4.70;;;;;;;13.98;77.71;99719.61;103845;1269;59382;-69
2023/10/15 00:38:27;;;;;;;6.90;4.50;;;;;;;13.98;77.74;99712.01;104116;1266;57798;-70
2023/10/15 00:41:00;;;;;;;7.90;4.40;;;;;;;13.98;77.78;99708.19;105335;1263;63663;-70
2023/10/15 00:43:30;;;;;;;9.60;4.00;;;;;;;13.97;77.83;99708.09;103624;1270;58400;-70
2023/10/15 00:45:59;;;;;;;8.80;4.40;;;;;;;13.95;77.96;99704.96;103590;1265;211821;-70
2023/10/15 00:48:36;;;;;;;6.10;3.50;;;;;;;13.93;77.89;99700.23;103899;1266;58924;-70
2023/10/15 00:51:10;;;;;;;6.00;3.90;;;;;;;13.90;77.98;99693.91;104379;1254;59394;-70
2023/10/15 00:53:50;;;;;;;6.30;3.70;;;;;;;13.90;78.05;99690.12;109412;1256;63379;-69
2023/10/15 00:56:20;;;;;;;5.90;3.90;;;;;;;13.89;78.05;99686.80;109554;1251;58248;-70
2023/10/15 01:01:26;;;;;;;7.30;3.80;;;;;;;13.86;78.18;99677.02;109648;1250;57400;-70
2023/10/15 01:03:55;;;;;;;;;;;;;;;13.86;78.27;99675.86;109406;1251;57367;-69
2023/10/15 01:06:35;;;;;;;4.30;3.10;;;;;;;13.84;78.14;99678.64;109695;1251;64231;-69
2023/10/15 01:09:10;;;;;;;8.20;3.30;;;;;;;13.84;78.20;99672.02;109668;1251;58170;-70
2023/10/15 01:11:44;;;;;;;4.50;3.20;;;;;;;13.83;78.28;99667.13;109531;1251;62448;-70
2023/10/15 01:14:13;;;;;;;7.10;3.30;;;;;;;13.82;78.24;99668.06;109516;1251;57277;-70
2023/10/15 01:16:41;;;;;;;5.20;2.80;;;;;;;13.82;78.35;99660.63;109530;1255;57393;-70
2023/10/15 01:21:53;;;;;;;6.00;2.90;;;;;;;13.84;78.32;99660.13;109552;1251;58164;-70
2023/10/15 01:24:22;;;;;;;5.60;3.00;;;;;;;13.84;78.27;99658.66;109594;1252;63834;-70
2023/10/15 01:29:40;;;;;;;5.50;2.90;;;;;;;13.83;78.29;99659.90;109623;1254;57381;-69
2023/10/15 01:32:30;;;;;;;4.80;2.60;;;;;;;13.82;78.21;99658.70;109457;1253;63300;-70
2023/10/15 01:35:00;;;;;;;5.80;3.00;;;;;;;13.80;78.16;99655.91;109633;1254;57361;-70
2023/10/15 01:37:30;;;;;;;6.30;3.10;;;;;;;13.79;78.16;99650.01;109467;1254;66065;-69
2023/10/15 01:40:15;;;;;;;4.40;2.40;;;;;;;13.78;78.25;99649.08;109602;1254;57393;-70
2023/10/15 01:42:47;;;;;;;5.80;2.90;;;;;;;13.76;78.20;99649.95;109629;1253;57245;-69
2023/10/15 01:45:17;;;;;;;5.70;2.80;;;;;;;13.75;78.29;99651.13;109635;1253;64325;-69
2023/10/15 01:50:23;;;;;;;8.70;3.10;;;;;;;13.72;78.38;99645.23;109497;1254;63831;-70
2023/10/15 01:53:01;;;;;;;5.60;3.40;;;;;;;13.70;78.28;99642.41;109423;1253;58698;-70
2023/10/15 01:55:35;;;;;;;5.00;2.90;;;;;;;13.69;78.33;99640.95;109457;1253;57402;-71
2023/10/15 01:58:05;;;;;;;5.80;2.90;;;;;;;13.68;78.51;99639.29;109455;1253;64135;-72
2023/10/15 02:03:12;;;;;;;4.30;3.00;;;;;;;13.66;78.74;99634.18;109595;1253;62447;-71
2023/10/15 02:05:41;;;;;;;5.70;2.90;;;;;;;13.66;78.74;99635.27;109485;1252;57383;-71
2023/10/15 02:08:13;;;;;;;5.80;3.40;;;;;;;13.64;78.74;99634.70;109342;1253;57387;-71
2023/10/15 02:10:46;;;;;;;5.30;2.80;;;;;;;13.63;78.81;99627.24;109512;1252;62991;-72
2023/10/15 02:13:16;;;;;;;7.30;3.20;;;;;;;13.63;78.84;99625.85;109512;1254;57430;-73
2023/10/15 02:15:43;;;;;;;6.40;3.00;;;;;;;13.63;78.97;99625.65;109471;1252;63835;-73
2023/10/15 02:18:14;;;;;;;5.20;2.80;;;;;;;13.62;79.00;99623.10;109574;1253;57294;-73
2023/10/15 02:20:46;;;;;;;4.20;2.60;;;;;;;13.62;78.94;99623.12;109631;1253;57277;-72
2023/10/15 02:23:15;;;;;;;7.10;3.10;;;;;;;13.61;78.90;99618.45;109451;1254;62834;-73
2023/10/15 02:25:57;;;;;;;6.10;2.60;;;;;;;13.61;79.12;99613.16;109230;1253;58139;-72
2023/10/15 02:28:27;;;;;;;6.30;3.10;;;;;;;13.61;79.11;99606.77;109377;1254;64828;-72
2023/10/15 02:31:30;;;;;;;5.90;3.00;;;;;;;13.60;79.13;99605.77;109354;1253;57354;-72
2023/10/15 02:33:49;;;;;;;5.10;2.80;;;;;;;13.60;79.31;99604.55;109499;1253;57360;-72
2023/10/15 02:36:17;;;;;;;6.30;2.70;;;;;;;13.61;79.29;99607.29;109524;1254;64172;-72
2023/10/15 02:38:55;;;;;;;5.10;2.90;;;;;;;13.61;79.36;99605.64;109653;1253;58101;-73
2023/10/15 02:41:30;;;;;;;4.30;2.60;;;;;;;13.62;79.50;99603.15;109420;1253;63696;-72
2023/10/15 02:43:58;;;;;;;4.50;2.50;;;;;;;13.62;79.45;99597.63;109527;1253;57326;-74
2023/10/15 02:48:59;;;;;;;5.20;3.00;;;;;;;13.63;79.53;99587.77;109404;1253;62855;-73
2023/10/15 02:51:27;;;;;;;5.30;3.20;;;;;;;13.64;79.53;99585.05;109459;1254;60090;-73
2023/10/15 02:54:01;;;;;;;5.70;2.80;;;;;;;13.64;79.62;99585.69;109448;1253;62497;-72
2023/10/15 02:56:28;;;;;;;4.30;2.70;;;;;;;13.65;79.60;99582.56;109509;1253;57340;-73
2023/10/15 02:58:56;;;;;;;5.10;2.90;;;;;;;13.66;79.64;99575.27;109446;1253;57397;-73
2023/10/15 03:01:25;;;;;;;8.70;3.30;;;;;;;13.65;79.52;99571.95;109427;1252;62848;-73
2023/10/15 03:03:54;;;;;;;5.60;3.20;;;;;;;13.65;79.44;99570.79;109442;1253;57390;-72
2023/10/15 03:06:28;;;;;;;7.40;3.20;;;;;;;13.65;79.57;99575.20;109432;1253;63728;-73
2023/10/15 03:08:56;;;;;;;4.60;3.10;;;;;;;13.66;79.58;99575.08;109411;1254;57325;-73
2023/10/15 03:11:25;;;;;;;5.10;2.90;;;;;;;13.68;79.72;99575.06;109432;1253;57225;-73
2023/10/15 03:13:56;;;;;;;4.90;2.70;;;;;;;13.68;79.72;99574.64;109221;1252;64125;-73
2023/10/15 03:16:35;;;;;;;6.40;2.60;;;;;;;13.69;79.70;99571.88;109238;1252;57386;-72
2023/10/15 03:19:23;;;;;;;4.10;3.00;;;;;;;13.70;79.63;99564.23;109278;1253;62481;-72
2023/10/15 03:21:59;;;;;;;5.50;3.10;;;;;;;13.70;79.57;99561.58;109369;1254;57283;-71
2023/10/15 03:24:32;;;;;;;5.50;3.20;;;;;;;13.70;79.49;99555.01;109542;1253;57352;-72
2023/10/15 03:27:00;;;;;;;4.20;2.40;;;;;;;13.72;79.54;99553.63;109458;1253;64098;-71
2023/10/15 03:29:29;;;;;;;4.90;3.10;;;;;;;13.71;79.42;99552.58;109526;1253;58323;-72
2023/10/15 03:32:15;;;;;;;7.50;3.10;;;;;;;13.72;79.52;99550.59;109483;1253;63710;-72
2023/10/15 03:34:47;;;;;;;4.80;3.30;;;;;;;13.73;79.49;99551.11;109310;1253;57424;-72
2023/10/15 03:37:15;;;;;;;4.80;3.20;;;;;;;13.74;79.51;99550.67;109378;1253;57193;-72
2023/10/15 03:39:56;;;;;;;6.10;3.60;;;;;;;13.74;79.44;99552.84;109576;1253;65124;-72
2023/10/15 03:42:26;;;;;;;5.70;3.50;;;;;;;13.74;79.50;99553.50;109368;1254;57361;-73
2023/10/15 03:45:00;;;;;;;5.30;3.30;;;;;;;13.74;79.49;99548.39;109289;1256;62477;-73
2023/10/15 03:47:27;;;;;;;;;;;;;;;13.74;79.48;99545.73;109381;1254;57304;-73
2023/10/15 03:49:56;;;;;;;5.80;3.80;;;;;;;13.74;79.51;99546.23;109522;1253;57267;-73
2023/10/15 03:52:26;;;;;;;9.10;4.60;;;;;;;13.74;79.55;99545.77;109619;1253;62820;-73
2023/10/15 03:54:55;;;;;;;7.10;4.40;;;;;;;13.74;79.52;99546.79;109492;1253;58377;-72
2023/10/15 03:57:28;;;;;;;7.10;4.50;;;;;;;13.75;79.55;99543.31;109442;1253;64209;-73
2023/10/15 03:59:59;;;;;;;7.50;4.20;;;;;;;13.76;79.64;99537.01;109334;1256;57342;-72
2023/10/15 04:02:59;;;;;;;5.40;4.50;;;;;;;13.77;79.58;99534.45;109361;1253;57463;-73
2023/10/15 04:05:29;;;;;;;6.80;4.80;;;;;;;13.77;79.51;99531.67;109383;1253;64093;-73
2023/10/15 04:07:57;;;;;;;6.80;4.50;;;;;;;13.78;79.62;99527.89;109473;1253;58187;-72
2023/10/15 04:10:28;;;;;;;8.50;4.40;;;;;;;13.79;79.72;99530.61;109571;1253;63716;-72
2023/10/15 04:12:57;;;;;;;7.80;4.20;;;;;;;13.81;79.73;99533.58;109304;1254;57348;-72
2023/10/15 04:15:24;;;;;;;8.40;4.00;;;;;;;13.82;79.73;99536.20;109440;1254;57389;-72
2023/10/15 04:17:52;;;;;;;8.30;4.40;;;;;;;13.84;79.73;99537.63;109442;1253;62910;-73
2023/10/15 04:20:35;;;;;;;7.20;4.20;;;;;;;13.86;79.73;99539.52;109501;1253;58183;-73
2023/10/15 04:23:03;;;;;;;6.80;4.10;;;;;;;13.90;79.85;99537.05;109460;1253;62520;-72
2023/10/15 04:25:36;;;;;;;5.70;3.50;;;;;;;13.94;79.95;99538.17;109181;1257;57313;-73
2023/10/15 04:28:25;;;;;;;6.80;4.00;;;;;;;13.98;80.08;99537.32;109468;1254;57225;-72
2023/10/15 04:30:52;;;;;;;6.20;3.90;;;;;;;14.04;80.20;99536.53;109241;1254;62854;-72
2023/10/15 04:33:21;;;;;;;7.10;4.10;;;;;;;14.11;80.19;99540.55;109435;1254;58186;-73
2023/10/15 04:35:48;;;;;;;6.30;4.20;;;;;;;14.18;80.01;99540.89;109436;1253;63001;-73
2023/10/15 04:38:21;;;;;;;6.40;3.90;;;;;;;14.24;79.86;99537.77;109159;1254;57386;-73
2023/10/15 04:43:26;;;;;;;10.50;3.80;;;;;;;14.36;79.82;99538.03;109454;1254;64232;-72
2023/10/15 04:45:54;;;;;;;7.40;4.20;;;;;;;14.42;79.71;99536.38;109465;1254;58120;-72
2023/10/15 04:48:36;;;;;;;7.80;3.80;;;;;;;14.47;79.50;99535.50;109400;1256;62509;-72
2023/10/15 04:51:13;;;;;;;7.60;3.70;;;;;;;14.52;79.36;99536.11;109318;1254;58196;-72
2023/10/15 04:53:44;;;;;;;7.20;3.50;;;;;;;14.58;79.10;99532.77;109331;1254;58190;-73
2023/10/15 04:56:12;;;;;;;5.30;3.50;;;;;;;14.66;78.86;99529.52;109331;1254;64926;-72
2023/10/15 04:58:40;;;;;;;7.00;3.60;;;;;;;14.72;78.70;99527.54;109345;1254;58251;-72
2023/10/15 05:01:07;;;;;;;8.40;3.70;;;;;;;14.77;78.51;99529.33;109440;1254;62459;-72
2023/10/15 05:03:38;;;;;;;8.20;4.00;;;;;;;14.81;78.26;99531.70;109406;1253;58218;-73
2023/10/15 05:06:10;;;;;;;7.00;3.40;;;;;;;14.85;78.12;99530.41;109446;1254;58254;-72
2023/10/15 05:08:40;;;;;;;4.20;2.50;;;;;;;14.89;78.03;99531.86;109264;1257;63865;-73
2023/10/15 05:11:08;;;;;;;5.80;3.70;;;;;;;14.94;77.77;99530.74;109327;1254;58179;-73
2023/10/15 05:13:36;;;;;;;5.30;3.40;;;;;;;15.01;77.69;99527.90;109294;1254;62528;-73
2023/10/15 05:16:04;;;;;;;6.80;3.80;;;;;;;15.08;77.78;99529.08;109060;1254;58234;-73
2023/10/15 05:18:32;;;;;;;6.60;3.50;;;;;;;15.15;77.51;99529.68;109437;1254;58035;-73
2023/10/15 05:21:00;;;;;;;6.70;3.50;;;;;;;15.22;77.24;99531.35;109443;1254;64890;-72
2023/10/15 05:23:28;;;;;;;5.90;3.40;;;;;;;15.30;77.10;99533.48;109291;1254;58194;-73
2023/10/15 05:25:56;;;;;;;8.10;3.90;;;;;;;15.37;76.92;99528.63;109394;1254;65845;-72
2023/10/15 05:28:26;;;;;;;9.00;3.80;;;;;;;15.43;76.61;99527.91;109150;1256;58186;-72
2023/10/15 05:30:54;;;;;;;7.80;3.90;;;;;;;15.49;76.44;99525.25;109239;1254;58162;-72
2023/10/15 05:33:22;;;;;;;4.70;3.40;;;;;;;15.57;76.27;99526.11;109362;1254;63630;-73
2023/10/15 05:35:49;;;;;;;6.60;3.40;;;;;;;15.64;75.75;99530.70;109231;1254;60836;-73
2023/10/15 05:38:17;;;;;;;6.30;3.90;;;;;;;15.68;75.58;99524.34;109198;1254;63817;-73
2023/10/15 05:40:45;;;;;;;7.20;3.20;;;;;;;15.71;75.24;99523.98;109424;1254;58121;-72
2023/10/15 05:43:14;;;;;;;7.40;3.60;;;;;;;15.73;74.89;99524.36;109203;1254;58268;-73
2023/10/15 05:45:45;;;;;;;6.80;3.60;;;;;;;15.74;74.80;99524.79;109379;1254;63754;-73
2023/10/15 05:48:13;;;;;;;5.40;3.40;;;;;;;15.75;74.65;99519.89;109302;1254;58209;-72
2023/10/15 05:50:41;;;;;;;5.30;3.30;;;;;;;15.77;74.59;99517.21;109205;1254;62995;-72
2023/10/15 05:53:08;;;;;;;5.70;3.10;;;;;;;15.78;74.65;99517.89;109198;1254;58177;-73
2023/10/15 05:55:36;;;;;;;6.50;3.30;;;;;;;15.80;74.40;99519.27;109243;1254;58004;-73
2023/10/15 05:58:07;;;;;;;6.90;3.40;;;;;;;15.81;74.28;99518.06;109377;1254;63698;-73
2023/10/15 06:00:39;;;;;;;6.70;3.20;;;;;;;15.82;74.08;99517.23;109344;1254;58404;-73
2023/10/15 06:03:08;;;;;;;5.50;3.40;;;;;;;15.84;73.88;99514.23;109109;1254;63738;-73
2023/10/15 06:05:36;;;;;;;9.90;3.50;;;;;;;15.86;73.71;99513.33;109394;1254;58108;-72
2023/10/15 06:08:05;;;;;;;5.30;2.90;;;;;;;15.87;73.60;99508.35;109233;1254;58235;-72
2023/10/15 06:10:33;;;;;;;6.60;3.60;;;;;;;15.89;73.46;99503.84;109169;1254;65015;-72
2023/10/15 06:13:01;;;;;;;8.70;3.30;;;;;;;15.91;73.11;99503.12;109258;1254;58233;-72
2023/10/15 06:15:29;;;;;;;10.50;3.50;;;;;;;15.92;73.02;99503.83;109115;1254;63439;-72
2023/10/15 06:17:58;;;;;;;7.20;3.30;;;;;;;15.95;72.97;99501.70;109141;1254;58090;-72
2023/10/15 06:20:27;;;;;;;7.40;3.20;;;;;;;15.98;72.74;99500.52;109458;1254;58208;-72
2023/10/15 06:22:55;;;;;;;5.30;3.30;;;;;;;16.00;72.52;99495.70;109409;1254;64915;-72
2023/10/15 06:25:24;;;;;;;4.60;3.00;;;;;;;16.00;72.34;99497.02;109198;1257;58243;-73
2023/10/15 06:27:52;;;;;;;5.00;3.20;;;;;;;16.01;72.30;99497.29;109192;1256;62463;-73
2023/10/15 06:30:20;;;;;;;5.10;2.90;;;;;;;16.02;72.28;99500.93;109054;1255;58026;-73
2023/10/15 06:32:52;;;;;;;4.20;2.60;;;;;;;16.03;72.08;99501.20;109345;1255;58185;-73
2023/10/15 06:35:22;;;;;;;9.20;2.90;;;;;;;16.03;72.07;99503.16;109220;1256;64967;-73
2023/10/15 06:37:52;;;;;;;5.90;3.00;;;;;;;16.02;71.89;99504.46;109163;1256;58319;-72
2023/10/15 06:40:21;;;;;;;7.40;2.90;;;;;;;16.02;71.72;99496.70;109155;1255;73120;-73
2023/10/15 06:42:52;;;;;;;5.50;3.20;;;;;;;16.03;71.80;99499.77;109147;1256;58158;-73
2023/10/15 06:45:20;;;;;;;4.10;2.50;;;;;;;16.03;71.59;99498.90;109127;1255;58301;-72
2023/10/15 06:47:52;;;;;;;4.50;2.80;;;;;;;16.03;71.37;99494.27;109065;1257;64960;-72
2023/10/15 06:50:22;;;;;;;4.50;2.70;;;;;;;16.04;71.30;99498.61;109366;1256;58358;-73
2023/10/15 06:52:53;;;;;;;8.60;2.80;;;;;;;16.04;71.41;99490.02;109196;1256;63709;-73
2023/10/15 06:55:22;;;;;;;4.30;2.70;;;;;;;16.06;71.33;99490.61;109309;1256;58211;-72
2023/10/15 06:57:50;;;;;;;6.70;2.90;;;;;;;16.06;71.09;99496.73;109050;1256;58227;-72
2023/10/15 07:00:21;;;;;;;5.90;3.10;;;;;;;16.07;71.08;99499.12;109139;1257;64952;-72
2023/10/15 07:02:50;;;;;;;7.50;3.30;;;;;;;16.08;71.04;99507.53;109391;1255;58285;-73
2023/10/15 07:05:20;;;;;;;5.40;2.70;;;;;;;16.09;70.92;99508.45;109392;1256;63768;-72
2023/10/15 07:07:48;;;;;;;4.20;2.60;;;;;;;16.09;70.72;99506.15;109212;1256;58223;-73
2023/10/15 07:10:17;;;;;;;5.00;3.20;;;;;;;16.10;70.67;99502.02;109199;1255;58247;-73
2023/10/15 07:12:45;;;;;;;4.30;2.70;;;;;;;16.10;70.55;99498.63;109171;1256;64948;-72
2023/10/15 07:15:13;;;;;;;5.20;2.80;;;;;;;16.10;70.70;99494.13;109206;1255;58209;-73
2023/10/15 07:17:42;;;;;;;6.20;3.00;;;;;;;16.11;70.78;99490.48;109243;1256;62485;-73
2023/10/15 07:20:18;;;;;;;5.00;3.00;;;;;;;16.13;70.80;99489.06;109068;1255;58210;-73
2023/10/15 07:22:51;;;;;;;4.20;2.90;;;;;;;16.14;70.72;99484.45;109164;1256;58225;-72
2023/10/15 07:25:24;;;;;;;3.90;2.80;;;;;;;16.17;70.68;99482.92;109274;1256;65006;-73
2023/10/15 07:27:58;;;;;;;5.10;3.00;;;;;;;16.19;70.81;99482.60;109211;1255;58192;-73
2023/10/15 07:30:33;;;;;;;6.90;3.30;;;;;;;16.21;70.75;99487.33;109136;1257;63722;-73
2023/10/15 07:33:04;;;;;;;5.70;3.30;;;;;;;16.21;70.52;99485.36;109106;1255;58165;-72
2023/10/15 07:35:35;;;;;;;6.00;3.50;;;;;;;16.21;70.47;99487.85;109148;1256;58229;-72
2023/10/15 07:38:12;;;;;;;5.80;3.20;;;;;;;16.20;70.40;99483.67;109226;1256;74374;-73
2023/10/15 07:40:42;;;;;;;8.30;3.40;;;;;;;16.21;70.53;99480.44;109142;1257;58284;-73
2023/10/15 07:43:13;;;;;;;6.10;3.60;;;;;;;16.21;70.50;99484.71;109144;1256;63764;-73
2023/10/15 07:45:44;;;;;;;6.70;4.20;;;;;;;16.19;70.54;99484.02;109145;1262;58083;-73
2023/10/15 07:48:14;;;;;;;5.70;3.50;;;;;;;16.18;70.44;99476.84;109117;1262;58222;-73
2023/10/15 07:50:45;;;;;;;5.40;3.70;;;;;;;16.20;70.55;99475.96;109014;1257;65191;-73
2023/10/15 07:53:16;;;;;;;6.70;3.80;;;;;;;16.21;70.48;99473.35;109148;1255;58223;-73
2023/10/15 07:55:49;;;;;;;8.60;3.90;;;;;;;16.21;70.49;99474.86;109239;1255;64173;-73
2023/10/15 07:58:21;;;;;;;7.60;4.00;;;;;;;16.23;70.51;99476.13;109214;1256;58158;-72
2023/10/15 08:00:53;;;;;;;7.20;4.10;;;;;;;16.23;70.56;99478.45;109207;1255;58061;-72
2023/10/15 08:03:39;;;;;;;7.50;3.60;;;;;;;16.24;70.56;99481.87;109145;1256;63720;-70
2023/10/15 08:06:11;;;;;;;6.60;3.60;;;;;;;16.25;70.43;99481.92;109238;1255;58834;-69
2023/10/15 08:08:45;;;;;;;6.40;3.60;;;;;;;16.25;70.42;99487.09;109103;1256;62452;-69
2023/10/15 08:11:16;;;;;;;5.50;3.20;;;;;;;16.23;70.54;99481.41;109130;1257;58562;-71
2023/10/15 08:13:47;;;;;;;6.90;3.70;;;;;;;16.24;70.61;99482.00;109120;1255;58067;-72
2023/10/15 08:16:18;;;;;;;6.30;3.60;;;;;;;16.25;70.62;99482.75;109243;1255;64501;-70
2023/10/15 08:18:49;;;;;;;9.10;4.10;;;;;;;16.25;70.80;99482.92;109094;1256;58139;-69
2023/10/15 08:21:19;;;;;;;5.50;3.80;;;;;;;16.27;70.68;99482.77;109109;1255;62608;-69
2023/10/15 08:31:21;;;;;;;6.10;3.40;;;;;;;16.39;70.69;99482.63;101787;1287;599778;-69
2023/10/15 08:41:25;;;;;;;7.80;4.10;;;;;;;16.51;70.23;99487.73;102049;1293;600243;-70
2023/10/15 08:43:53;;;;;;;6.40;4.20;;;;;;;16.50;70.11;99490.08;106190;1264;59324;-68
2023/10/15 08:46:22;;;;;;;5.40;3.70;;;;;;;16.51;70.04;99484.36;105682;1264;58949;-70
2023/10/15 08:48:51;;;;;;;8.20;4.50;;;;;;;16.51;69.95;99484.02;103633;1270;63298;-70
2023/10/15 08:51:21;;;;;;;7.70;4.40;;;;;;;16.50;69.93;99480.55;105452;1264;58881;-70
2023/10/15 08:53:51;;;;;;;6.20;4.00;;;;;;;16.50;69.96;99477.02;108655;1264;62430;-72
2023/10/15 08:56:22;;;;;;;8.50;4.80;;;;;;;16.51;70.03;99473.45;108620;1262;56918;-71
2023/10/15 08:58:54;;;;;;;7.90;5.40;;;;;;;16.54;69.94;99475.62;108717;1263;57006;-74
2023/10/15 09:01:22;;;;;;;6.80;5.10;;;;;;;16.56;69.99;99474.25;109360;1254;63329;-72
2023/10/15 09:03:52;;;;;;;8.80;5.30;;;;;;;16.60;69.97;99476.00;109238;1254;58149;-71
2023/10/15 09:06:20;;;;;;;7.30;4.40;;;;;;;16.63;69.89;99477.64;106630;1254;65102;-71
2023/10/15 09:08:51;;;;;;;9.10;4.50;;;;;;;16.66;69.72;99486.20;109023;1254;57895;-79
2023/10/15 09:11:20;;;;;;;11.70;5.30;;;;;;;16.64;69.57;99488.65;108114;1254;57555;-72
2023/10/15 09:13:52;;;;;;;13.20;5.60;;;;;;;16.64;69.47;99487.59;107728;1254;66314;-72
2023/10/15 09:16:24;;;;;;;6.20;4.60;;;;;;;16.65;69.42;99486.61;104767;1259;59338;-71
2023/10/15 09:19:00;;;;;;;11.90;4.90;;;;;;;16.67;69.49;99479.61;106926;1254;63946;-72
2023/10/15 09:21:37;;;;;;;8.60;4.80;;;;;;;16.69;69.38;99483.52;106912;1254;59656;-74
2023/10/15 09:24:15;;;;;;;7.50;4.70;;;;;;;16.69;69.32;99482.09;104475;1260;59656;-70
2023/10/15 09:26:50;;;;;;;5.70;4.20;;;;;;;16.69;69.25;99480.09;104405;1260;65879;-72
2023/10/15 09:29:21;;;;;;;5.00;4.20;;;;;;;16.68;69.20;99480.98;106714;1257;60304;-72
2023/10/15 09:31:56;;;;;;;8.50;4.70;;;;;;;16.66;69.18;99477.19;106836;1257;65707;-72
2023/10/15 09:34:25;;;;;;;7.40;5.10;;;;;;;16.66;69.16;99475.30;106562;1256;59692;-72
2023/10/15 09:36:53;;;;;;;13.90;8.70;;;;;;;16.68;69.35;99471.65;106795;1257;59548;-72
2023/10/15 09:39:22;;;;;;;13.30;8.40;;;;;;;16.73;69.26;99464.57;106083;1258;62855;-71
2023/10/15 09:41:51;;;;;;;11.80;7.50;;;;;;;16.76;69.13;99457.88;104321;1258;59730;-72
2023/10/15 09:44:18;;;;;;;15.60;9.10;;;;;;;16.81;69.07;99458.56;106760;1256;62504;-72
2023/10/15 09:46:46;;;;;;;10.90;7.60;;;;;;;16.84;68.78;99454.63;106603;1257;59724;-71
2023/10/15 09:49:14;;;;;;;12.30;7.30;;;;;;;16.85;68.68;99451.97;106678;1257;59544;-72
2023/10/15 09:51:41;;;;;;;11.50;8.10;;;;;;;16.88;68.60;99453.73;106633;1257;64158;-73
2023/10/15 09:54:11;;;;;;;8.70;5.80;;;;;;;16.91;68.45;99455.80;106723;1256;65973;-73
2023/10/15 09:56:40;;;;;;;8.30;5.30;;;;;;;16.89;68.26;99453.30;104358;1257;63726;-74
2023/10/15 09:59:07;;;;;;;8.70;5.00;;;;;;;16.87;68.37;99449.28;106776;1257;59666;-74
2023/10/15 10:01:44;;;;;;;8.10;5.40;;;;;;;16.86;68.41;99448.45;106761;1257;59036;-74
2023/10/15 10:04:23;;;;;;;8.40;5.60;;;;;;;16.88;68.44;99446.71;106573;1260;65928;-73
2023/10/15 10:07:10;;;;;;;12.80;5.70;;;;;;;16.92;68.55;99447.96;107030;1257;59640;-74
2023/10/15 10:09:51;;;;;;;8.30;5.40;;;;;;;16.97;68.49;99450.04;106751;1256;63776;-74
2023/10/15 10:13:02;;;;;;;10.70;6.70;;;;;;;17.00;68.41;99450.59;106880;1257;59289;-73
2023/10/15 10:15:42;;;;;;;10.90;9.00;;;;;;;17.03;68.36;99451.97;106774;1257;59525;-73
2023/10/15 10:18:11;;;;;;;8.90;7.50;;;;;;;17.03;68.25;99456.73;107072;1254;64330;-73
2023/10/15 10:20:43;;;;;;;8.50;5.30;;;;;;;17.04;68.23;99452.67;106818;1254;59564;-72
2023/10/15 10:23:16;;;;;;;7.40;5.00;;;;;;;17.06;68.13;99456.19;106722;1254;63951;-72
2023/10/15 10:25:48;;;;;;;9.20;5.10;;;;;;;17.05;68.01;99449.36;104370;1254;61851;-72
2023/10/15 10:28:22;;;;;;;9.50;5.30;;;;;;;17.05;68.14;99448.49;107191;1254;59643;-73
2023/10/15 10:30:54;;;;;;;8.40;5.20;;;;;;;17.06;68.09;99451.79;106880;1254;66585;-74
2023/10/15 10:33:41;;;;;;;9.00;5.60;;;;;;;17.07;68.03;99450.70;106892;1254;59631;-73
2023/10/15 10:36:17;;;;;;;9.40;5.30;;;;;;;17.09;67.92;99449.51;106840;1257;62504;-73
2023/10/15 10:39:10;;;;;;;9.00;5.20;;;;;;;17.08;67.79;99449.93;106705;1254;59631;-74
2023/10/15 10:42:04;;;;;;;10.70;5.40;;;;;;;17.05;67.78;99446.73;106775;1254;59352;-73
2023/10/15 10:44:38;;;;;;;8.40;5.60;;;;;;;17.02;67.76;99445.15;106824;1254;62860;-73
2023/10/15 10:47:24;;;;;;;9.10;5.70;;;;;;;17.03;67.81;99444.13;106841;1254;59644;-73
2023/10/15 10:49:59;;;;;;;7.30;5.40;;;;;;;17.05;67.57;99447.83;106804;1254;63891;-73
2023/10/15 10:52:36;;;;;;;11.60;5.80;;;;;;;17.06;67.52;99451.25;106717;1254;59688;-74
2023/10/15 10:55:33;;;;;;;11.30;5.90;;;;;;;17.08;67.66;99449.44;106872;1254;59574;-73
2023/10/15 10:58:08;;;;;;;9.30;5.90;;;;;;;17.10;67.61;99448.15;106891;1253;62821;-75
2023/10/15 11:00:35;;;;;;;8.00;5.60;;;;;;;17.11;67.63;99449.94;106851;1259;59771;-74
2023/10/15 11:03:06;;;;;;;11.50;6.20;;;;;;;17.12;67.70;99448.35;106842;1257;63737;-74
2023/10/15 11:05:34;;;;;;;11.40;6.90;;;;;;;17.15;67.57;99446.03;106872;1257;59526;-73
2023/10/15 11:08:16;;;;;;;13.30;7.20;;;;;;;17.18;67.42;99444.45;106791;1259;59535;-73
2023/10/15 11:10:45;;;;;;;11.60;7.20;;;;;;;17.20;67.34;99447.46;106987;1254;64175;-73
2023/10/15 11:13:15;;;;;;;10.90;6.80;;;;;;;17.21;67.20;99443.11;106879;1254;59784;-73
2023/10/15 11:15:43;;;;;;;10.30;6.40;;;;;;;17.20;67.05;99440.39;106844;1254;63748;-72
2023/10/15 11:18:11;;;;;;;11.20;6.70;;;;;;;17.21;67.13;99439.58;106896;1254;59568;-73
2023/10/15 11:20:39;;;;;;;11.60;6.70;;;;;;;17.23;67.16;99438.58;106712;1254;59661;-71
2023/10/15 11:23:07;;;;;;;9.20;6.30;;;;;;;17.28;67.03;99437.08;108638;1254;64145;-73
2023/10/15 11:25:37;;;;;;;9.10;6.10;;;;;;;17.30;67.00;99436.16;107950;1253;59263;-73
2023/10/15 11:28:06;;;;;;;11.80;6.10;;;;;;;17.32;66.74;99435.98;106752;1253;62572;-73
2023/10/15 11:30:41;;;;;;;9.30;6.30;;;;;;;17.32;66.69;99431.50;108451;1254;59263;-72
2023/10/15 11:33:10;;;;;;;11.20;6.10;;;;;;;17.33;66.55;99428.14;108613;1255;58384;-74
2023/10/15 11:35:40;;;;;;;9.70;6.00;;;;;;;17.35;66.56;99430.63;108510;1254;65722;-73
2023/10/15 11:38:12;;;;;;;;;;;;;;;17.35;66.40;99429.55;108713;1253;57655;-74
2023/10/15 11:40:41;;;;;;;10.20;6.10;;;;;;;17.32;66.34;99427.20;107473;1254;64019;-72
2023/10/15 11:43:19;;;;;;;9.40;6.10;;;;;;;17.32;66.42;99426.70;106641;1254;58927;-75
2023/10/15 11:45:56;;;;;;;11.40;6.10;;;;;;;17.33;66.26;99427.85;104769;1254;60040;-73
2023/10/15 11:48:29;;;;;;;8.60;6.20;;;;;;;17.34;66.34;99430.61;104637;1254;66052;-72
2023/10/15 11:51:05;;;;;;;10.30;6.30;;;;;;;17.36;66.23;99429.65;104923;1253;60164;-73
2023/10/15 11:53:34;;;;;;;11.40;7.00;;;;;;;17.38;66.23;99433.14;107193;1254;65811;-73
2023/10/15 11:56:04;;;;;;;8.60;6.80;;;;;;;17.39;66.28;99430.11;106940;1254;59663;-72
2023/10/15 11:58:34;;;;;;;12.50;7.00;;;;;;;17.41;66.23;99429.21;106954;1254;59279;-71
2023/10/15 12:01:02;;;;;;;12.80;7.90;;;;;;;17.41;66.21;99426.48;106905;1254;62875;-71
2023/10/15 12:03:31;;;;;;;11.20;7.70;;;;;;;17.42;66.17;99428.29;104428;1254;59813;-71
2023/10/15 12:05:58;;;;;;;11.10;7.00;;;;;;;17.43;66.21;99426.89;104090;1254;63725;-70
2023/10/15 12:08:27;;;;;;;14.10;7.60;;;;;;;17.42;66.19;99422.75;104452;1257;60747;-71
2023/10/15 12:10:55;;;;;;;14.10;7.50;;;;;;;17.43;66.06;99421.97;106492;1255;59398;-72
2023/10/15 12:13:23;;;;;;;10.70;7.40;;;;;;;17.42;66.02;99423.29;106879;1254;64427;-71
2023/10/15 12:15:50;;;;;;;10.50;7.40;;;;;;;17.42;66.10;99422.13;106873;1254;59655;-72
2023/10/15 12:18:18;;;;;;;13.30;7.40;;;;;;;17.43;66.14;99422.42;106953;1253;63839;-71
2023/10/15 12:20:45;;;;;;;12.20;7.10;;;;;;;17.47;66.07;99420.98;104293;1257;60145;-71
2023/10/15 12:23:13;;;;;;;13.00;6.70;;;;;;;17.50;66.26;99419.55;104582;1254;58818;-71
2023/10/15 12:25:42;;;;;;;17.80;7.00;;;;;;;17.52;66.03;99425.31;104383;1254;63149;-71
2023/10/15 12:28:10;;;;;;;12.80;6.50;;;;;;;17.53;65.93;99423.79;104604;1254;59676;-71
2023/10/15 12:30:37;;;;;;;10.80;6.40;;;;;;;17.56;66.02;99423.61;104639;1254;63787;-70
2023/10/15 12:33:07;;;;;;;11.20;6.50;;;;;;;17.59;65.87;99421.45;104519;1259;59755;-71